createdAt,value
2019-03-03T00:02:56.053Z,3.73
2019-03-03T00:08:01.417Z,3.27
2019-03-03T00:13:06.812Z,4.30
2019-03-03T00:18:12.584Z,3.63
2019-03-03T00:23:18.619Z,3.13
2019-03-03T00:28:24.454Z,3.40
2019-03-03T00:33:30.149Z,3.47
2019-03-03T00:38:53.170Z,3.40
2019-03-03T00:44:11.567Z,2.83
2019-03-03T00:49:35.945Z,3.07
2019-03-03T00:55:03.146Z,2.93
2019-03-03T01:00:25.881Z,3.10
2019-03-03T01:05:56.228Z,3.63
2019-03-03T01:11:20.520Z,3.23
2019-03-03T01:16:59.790Z,3.67
2019-03-03T01:22:19.421Z,3.43
2019-03-03T01:27:25.877Z,3.40
2019-03-03T01:32:31.376Z,3.17
2019-03-03T01:37:36.787Z,3.10
2019-03-03T01:42:42.400Z,3.67
2019-03-03T01:47:47.864Z,3.23
2019-03-03T01:52:53.374Z,3.57
2019-03-03T01:57:59.154Z,3.23
2019-03-03T02:03:04.706Z,3.47
2019-03-03T02:08:10.159Z,2.97
2019-03-03T02:13:15.899Z,3.30
2019-03-03T02:18:21.494Z,3.63
2019-03-03T02:23:27.218Z,3.40
2019-03-03T02:28:32.602Z,3.30
2019-03-03T02:33:38.108Z,3.37
2019-03-03T02:38:43.703Z,3.53
2019-03-03T02:43:49.272Z,3.13
2019-03-03T02:48:54.665Z,3.40
2019-03-03T02:54:00.117Z,3.63
2019-03-03T02:59:05.577Z,3.33
2019-03-03T03:04:11.090Z,3.10
2019-03-03T03:09:19.102Z,4.00
2019-03-03T03:14:46.625Z,2.80
2019-03-03T03:20:11.171Z,3.03
2019-03-03T03:25:33.821Z,3.33
2019-03-03T03:30:49.325Z,3.40
2019-03-03T03:36:19.523Z,2.97
2019-03-03T03:41:46.609Z,3.07
2019-03-03T03:46:57.193Z,4.30
2019-03-03T03:52:14.013Z,3.47
2019-03-03T03:57:44.466Z,3.63
2019-03-03T04:03:09.595Z,3.33
2019-03-03T04:08:23.771Z,3.70
2019-03-03T04:13:45.453Z,3.30
2019-03-03T04:19:15.690Z,3.30
2019-03-03T04:24:38.443Z,3.10
2019-03-03T04:29:49.794Z,3.83
2019-03-03T04:35:17.956Z,3.63
2019-03-03T04:40:29.468Z,3.70
2019-03-03T04:45:48.927Z,3.50
2019-03-03T04:51:11.612Z,3.30
2019-03-03T04:56:38.889Z,3.77
2019-03-03T05:01:58.995Z,3.50
2019-03-03T05:07:18.439Z,3.47
2019-03-03T05:12:56.435Z,3.17
2019-03-03T05:18:36.011Z,3.73
2019-03-03T05:23:41.388Z,3.13
2019-03-03T05:28:46.913Z,3.30
2019-03-03T05:33:52.312Z,3.20
2019-03-03T05:38:57.817Z,3.67
2019-03-03T05:44:03.201Z,3.50
2019-03-03T05:49:08.806Z,3.50
2019-03-03T05:54:14.282Z,3.73
2019-03-03T05:59:19.642Z,3.50
2019-03-03T06:04:25.078Z,3.67
2019-03-03T06:09:30.502Z,3.80
2019-03-03T06:14:35.968Z,3.37
2019-03-03T06:19:41.549Z,3.70
2019-03-03T06:24:46.978Z,3.80
2019-03-03T06:29:52.433Z,3.27
2019-03-03T06:34:57.978Z,3.80
2019-03-03T06:40:03.471Z,3.73
2019-03-03T06:45:10.239Z,4.13
2019-03-03T06:50:15.735Z,3.63
2019-03-03T06:55:21.150Z,4.53
2019-03-03T07:00:26.579Z,4.67
2019-03-03T07:05:32.097Z,4.00
2019-03-03T07:10:37.458Z,4.40
2019-03-03T07:15:43.025Z,3.83
2019-03-03T07:20:48.426Z,4.30
2019-03-03T07:25:54.006Z,4.50
2019-03-03T07:30:59.500Z,5.07
2019-03-03T07:36:04.962Z,4.80
2019-03-03T07:41:10.363Z,5.03
2019-03-03T07:46:15.824Z,4.37
2019-03-03T07:51:21.223Z,4.83
2019-03-03T07:56:29.462Z,5.43
2019-03-03T08:01:34.931Z,4.30
2019-03-03T08:06:40.481Z,4.73
2019-03-03T08:11:45.860Z,4.43
2019-03-03T08:16:51.317Z,3.30
2019-03-03T08:21:56.725Z,3.47
2019-03-03T08:27:02.336Z,3.20
2019-03-03T08:32:07.730Z,2.93
2019-03-03T08:37:13.273Z,2.73
2019-03-03T08:42:34.623Z,2.50
2019-03-03T08:47:53.137Z,3.03
2019-03-03T08:53:06.129Z,2.40
2019-03-03T08:58:16.996Z,2.47
2019-03-03T09:03:41.559Z,2.33
2019-03-03T09:08:59.124Z,2.10
2019-03-03T09:14:27.682Z,2.20
2019-03-03T09:19:57.884Z,2.57
2019-03-03T09:25:09.834Z,2.30
2019-03-03T09:30:32.528Z,3.00
2019-03-03T09:35:52.666Z,2.67
2019-03-03T09:41:25.827Z,2.83
2019-03-03T09:46:42.964Z,3.07
2019-03-03T09:52:25.462Z,2.33
2019-03-03T09:57:44.548Z,2.73
2019-03-03T10:03:20.826Z,2.53
2019-03-03T10:08:32.484Z,2.30
2019-03-03T10:13:59.812Z,2.40
2019-03-03T10:19:12.296Z,2.73
2019-03-03T10:24:32.905Z,2.27
2019-03-03T10:30:12.108Z,2.70
2019-03-03T10:35:27.143Z,2.80
2019-03-03T10:40:57.474Z,3.30
2019-03-03T10:46:13.595Z,3.70
2019-03-03T10:51:33.399Z,3.57
2019-03-03T10:57:01.149Z,3.27
2019-03-03T11:02:28.292Z,2.63
2019-03-03T11:08:07.706Z,1.47
2019-03-03T11:13:30.805Z,1.20
2019-03-03T11:19:01.540Z,1.20
2019-03-03T11:24:40.859Z,1.40
2019-03-03T11:30:00.233Z,2.37
2019-03-03T11:35:23.538Z,2.60
2019-03-03T11:40:46.395Z,2.23
2019-03-03T11:46:19.677Z,1.90
2019-03-03T11:51:48.436Z,1.93
2019-03-03T11:56:59.597Z,2.53
2019-03-03T12:02:35.998Z,2.60
2019-03-03T12:08:00.299Z,2.60
2019-03-03T12:13:17.700Z,2.17
2019-03-03T12:18:31.059Z,2.30
2019-03-03T12:24:04.444Z,1.60
2019-03-03T12:29:28.815Z,1.60
2019-03-03T12:34:41.177Z,1.43
2019-03-03T12:40:11.343Z,1.40
2019-03-03T12:45:34.066Z,1.90
2019-03-03T12:50:55.706Z,1.83
2019-03-03T12:56:26.111Z,1.40
2019-03-03T13:02:05.409Z,2.40
2019-03-03T13:07:28.367Z,3.20
2019-03-03T13:12:50.171Z,3.03
2019-03-03T13:18:26.755Z,2.50
2019-03-03T13:23:57.099Z,2.63
2019-03-03T13:29:07.711Z,2.53
2019-03-03T13:34:20.571Z,2.60
2019-03-03T13:39:56.976Z,2.30
2019-03-03T13:45:02.352Z,2.13
2019-03-03T13:50:10.900Z,3.10
2019-03-03T13:55:16.604Z,2.93
2019-03-03T14:00:22.642Z,3.47
2019-03-03T14:05:28.118Z,4.10
2019-03-03T14:10:33.672Z,4.00
2019-03-03T14:15:39.131Z,3.97
2019-03-03T14:20:44.511Z,2.27
2019-03-03T14:25:49.935Z,2.20
2019-03-03T14:30:55.400Z,3.07
2019-03-03T14:36:00.859Z,3.23
2019-03-03T14:41:06.341Z,3.67
2019-03-03T14:46:11.884Z,6.63
2019-03-03T14:51:17.374Z,5.90
2019-03-03T14:56:22.783Z,7.20
2019-03-03T15:01:28.249Z,6.33
2019-03-03T15:06:33.709Z,7.70
2019-03-03T15:11:39.411Z,6.50
2019-03-03T15:16:44.827Z,5.67
2019-03-03T15:21:50.224Z,6.07
2019-03-03T15:26:55.801Z,4.57
2019-03-03T15:32:01.314Z,5.37
2019-03-03T15:37:11.327Z,5.87
2019-03-03T15:42:16.967Z,5.00
2019-03-03T15:47:22.483Z,6.20
2019-03-03T15:52:27.886Z,4.90
2019-03-03T15:57:33.377Z,3.90
2019-03-03T16:02:38.747Z,3.30
2019-03-03T16:07:44.166Z,3.87
2019-03-03T16:12:49.570Z,3.40
2019-03-03T16:17:55.053Z,3.80
2019-03-03T16:23:00.622Z,3.33
2019-03-03T16:28:06.059Z,3.30
2019-03-03T16:33:20.260Z,3.87
2019-03-03T16:38:18.687Z,3.57
2019-03-03T16:43:24.189Z,3.73
2019-03-03T16:48:29.698Z,4.00
2019-03-03T16:53:35.249Z,3.67
2019-03-03T16:58:40.734Z,3.60
2019-03-03T17:03:46.219Z,4.03
2019-03-03T17:08:51.656Z,3.60
2019-03-03T17:13:57.072Z,3.50
2019-03-03T17:19:02.527Z,3.57
2019-03-03T17:24:08.040Z,3.47
2019-03-03T17:29:13.550Z,3.80
2019-03-03T17:34:19.027Z,3.53
2019-03-03T17:39:24.453Z,3.73
2019-03-03T17:44:29.850Z,3.83
2019-03-03T17:49:35.420Z,3.77
2019-03-03T17:54:40.948Z,3.60
2019-03-03T17:59:46.356Z,3.47
2019-03-03T18:04:51.770Z,4.07
2019-03-03T18:09:57.418Z,4.07
2019-03-03T18:15:02.968Z,3.47
2019-03-03T18:20:09.644Z,3.87
2019-03-03T18:25:15.501Z,3.67
2019-03-03T18:30:22.529Z,3.50
2019-03-03T18:35:28.293Z,4.87
2019-03-03T18:40:33.844Z,3.47
2019-03-03T18:45:39.244Z,3.67
2019-03-03T18:50:44.666Z,3.87
2019-03-03T18:55:50.019Z,3.97
2019-03-03T19:00:55.403Z,3.63
2019-03-03T19:06:00.772Z,3.90
2019-03-03T19:11:06.359Z,3.70
2019-03-03T19:16:11.905Z,3.23
2019-03-03T19:21:17.279Z,3.73
2019-03-03T19:26:22.749Z,3.53
2019-03-03T19:31:28.255Z,3.70
2019-03-03T19:36:33.743Z,4.23
2019-03-03T19:41:39.220Z,3.90
2019-03-03T19:46:44.648Z,3.67
2019-03-03T19:51:50.016Z,3.60
2019-03-03T19:56:57.230Z,3.57
2019-03-03T20:02:02.671Z,3.60
2019-03-03T20:07:08.088Z,3.03
2019-03-03T20:12:13.506Z,3.00
2019-03-03T20:17:18.954Z,2.73
2019-03-03T20:22:24.423Z,2.90
2019-03-03T20:27:29.970Z,2.70
2019-03-03T20:32:35.423Z,2.97
2019-03-03T20:37:40.878Z,2.60
2019-03-03T20:42:46.281Z,2.67
2019-03-03T20:47:51.691Z,2.77
2019-03-03T20:52:57.147Z,2.83
2019-03-03T20:58:02.669Z,3.07
2019-03-03T21:03:08.068Z,2.63
2019-03-03T21:08:13.540Z,2.40
2019-03-03T21:13:18.904Z,2.30
2019-03-03T21:18:24.391Z,2.50
2019-03-03T21:23:29.802Z,2.57
2019-03-03T21:28:35.206Z,2.40
2019-03-03T21:33:40.618Z,2.23
2019-03-03T21:38:46.109Z,2.17
2019-03-03T21:43:51.514Z,2.00
2019-03-03T21:48:56.994Z,2.17
2019-03-03T21:54:02.443Z,2.40
2019-03-03T21:59:07.841Z,2.20
2019-03-03T22:04:13.270Z,2.40
2019-03-03T22:09:18.704Z,2.80
2019-03-03T22:14:24.080Z,2.13
2019-03-03T22:19:29.432Z,2.50
2019-03-03T22:24:34.832Z,2.87
2019-03-03T22:29:40.225Z,2.73
2019-03-03T22:34:45.667Z,2.73
2019-03-03T22:39:51.116Z,3.00
2019-03-03T22:44:56.568Z,2.40
2019-03-03T22:50:01.946Z,2.70
2019-03-03T22:55:08.041Z,2.37
2019-03-03T23:00:43.331Z,3.00
2019-03-03T23:06:35.903Z,2.50
2019-03-03T23:12:24.979Z,2.50
2019-03-03T23:17:56.249Z,2.57
2019-03-03T23:24:18.683Z,2.77
2019-03-03T23:29:24.051Z,2.50
2019-03-03T23:34:29.496Z,2.80
2019-03-03T23:39:34.913Z,2.90
2019-03-03T23:44:40.344Z,2.63
2019-03-03T23:49:45.827Z,2.30
2019-03-03T23:54:51.182Z,2.37
2019-03-03T23:59:56.566Z,3.00
